Akron, CO (80720)

12:28 PM MDT on March 30, 2015 (GMT -0600)
Akron-Washington County | | Change Station
CLOSE
Current Station
Airport
Location: Akron,
Elevation: 4662 ft
Nearby Weather Stations

Elev 4662 ft 40.17 °N, 103.21 °W | Updated 35 minutes ago

Clear
Clear
69 °F
Feels Like 69 °F
N
15
Wind Variable Wind from NNW
Gusts 25 mph

Today
High -- | Low -- °F
--% Chance of Precip.
Yesterday
High -- | Low -- °F
Precip. -- in
6:40 AM 7:14 PM
Waxing Gibbous, 81% visible
Pressure 30.04 in
Visibility 10.0 miles
Clouds Clear
Dew Point 16 °F
Humidity 13%
Rainfall 0.00 in
Snow Depth Not available.
UV 8 out of 12
Pollen 10.60 out of 12
Air Quality Not available.
Flu Activity Not available.
METAR KAKO 301753Z AUTO 33013G22KT 10SM CLR 21/M09 A3013 RMK AO2 PK WND 35026/1701 SLP173 T02061089 10206 20044 50003

More Conditions Fewer Conditions

Pressure 30.04 in
Visibility 10.0 miles
Clouds Clear
Dew Point 16 °F
Humidity 13%
Rainfall 0.00 in
Snow Depth Not available.
UV 8 out of 12
Pollen 10.60 out of 12
Air Quality Not available.
Flu Activity Not available.
METAR KAKO 301753Z AUTO 33013G22KT 10SM CLR 21/M09 A3013 RMK AO2 PK WND 35026/1701 SLP173 T02061089 10206 20044 50003

More Conditions Fewer Conditions

10-Day Weather Forecast

Almanac

Astronomy

Mar. 30, 2015 Rise Set
Actual Time
Civil Twilight
Nautical Twilight
Astronomical Twilight
Moon
Length of Visible Light
Length of Day
Tomorrow will be .
, % of the Moon is Illuminated

Today's Extremes

State Highs State Lows

Community

WunderPhotos

Upload Photos

1,809,561 photos uploaded!

WunderBlogs® & News

Nearby

Air Quality

  Air Quality AQ Index Pollutant
Not available.

Snow Depth

Station Depth Elevation

Earthquake Activity

City Distance Mag. Time & Date
Minimum magnitude displayed is 2.5.

Coastal Water Temperatures

Place Temperature

Stations

Nearby Weather Stations

Station Location Temp. Windchill Dew Point Humidity Wind Precip. Elev Updated Type